Airfield :







YOU CAN JOIN US ON...

 
LOGIN :

Register | Disclaimer

   EN    FR    IT 

 









Legend :    VFR   Marginal VFR   IFR   Intensive IFR   Very Intensive IFR
Visi :
Ceiling :
>= 8 km
>= 3000ft
5 to 8 km
1000 to 3000 ft
1500m to 5 km
500 to 1000 ft
800 to 1500m
200 to 500 ft
< 800m
< 200 ft
Symbols :   Thunderstorms  Fog  Heavy snow  Heavy precipitations  Wind > 20 kt






- Airport Elevation : 234 ft
- IATA code : PBG


KPBG - Plattsburgh International

CURRENT METAR :
  • 291753Z AUTO 00000KT 10SM BKN050 OVC060 M01/M05 A3000 RMK AO2 SLP163 T10111050 11011 21044 58052

EXPIRED METARs :
  • 291653Z AUTO 00000KT 10SM BKN045 OVC055 M02/M06 A3006 RMK AO2 SLP182 T10221061
  • 291553Z AUTO 00000KT 10SM OVC055 M03/M07 A3012 RMK AO2 SLP204 T10281067

TAF KPBG
Valid from the 29 at 18:00 until the 30 at 18:00 UTC


291741Z 2918/3018 VRB04KT P6SM VCSH OVC040
TEMPO 2918/2922 3SM -SNRA BR OVC025
FM292200 36009KT 2SM -SHSN BR OVC015
FM300500 35008KT P6SM VCSH OVC018
FM300900 01005KT P6SM BKN024
KZBW FIR / North America



MET'MAP, your aeronautical weather chart ! - Copyright ORBIFLY December 2007 - Disclaimer

ORBIFLY MET'MAP TEAM :

Programming & Development : Alexandra Zaïnal
Original concept : Baudouin d'Aumeries
Technical & hardware support : Manuel Goepfert
Assistance : Marc-Olivier Méhu




SOURCES & CREDITS :

   NOAA